sensor_id;sensor_type;location;lat;lon;timestamp;pressure;altitude;pressure_sealevel;temperature;humidity
64551;BME280;50945;44.472;-123.352;2022-08-01T00:01:12;99934.88;;;33.29;35.35
64551;BME280;50945;44.472;-123.352;2022-08-01T00:03:38;99932.03;;;33.17;35.48
64551;BME280;50945;44.472;-123.352;2022-08-01T00:06:05;99931.50;;;33.15;35.97
64551;BME280;50945;44.472;-123.352;2022-08-01T00:08:31;99922.03;;;33.11;36.26
64551;BME280;50945;44.472;-123.352;2022-08-01T00:10:57;99928.59;;;33.03;36.16
64551;BME280;50945;44.472;-123.352;2022-08-01T00:13:23;99928.84;;;32.97;36.56
64551;BME280;50945;44.472;-123.352;2022-08-01T00:15:50;99933.38;;;32.90;36.85
64551;BME280;50945;44.472;-123.352;2022-08-01T00:18:16;99931.94;;;32.84;37.00
64551;BME280;50945;44.472;-123.352;2022-08-01T00:20:42;99929.66;;;32.77;36.94
64551;BME280;50945;44.472;-123.352;2022-08-01T00:23:08;99924.44;;;32.58;36.74
64551;BME280;50945;44.472;-123.352;2022-08-01T00:25:35;99929.00;;;32.50;36.84
64551;BME280;50945;44.472;-123.352;2022-08-01T00:28:01;99922.41;;;32.37;37.20
64551;BME280;50945;44.472;-123.352;2022-08-01T00:30:27;99931.97;;;32.24;37.37
64551;BME280;50945;44.472;-123.352;2022-08-01T00:32:54;99930.03;;;32.16;37.53
64551;BME280;50945;44.472;-123.352;2022-08-01T00:35:20;99925.72;;;32.01;37.69
64551;BME280;50945;44.472;-123.352;2022-08-01T00:37:46;99938.94;;;31.88;38.40
64551;BME280;50945;44.472;-123.352;2022-08-01T00:40:13;99932.34;;;31.75;38.78
64551;BME280;50945;44.472;-123.352;2022-08-01T00:42:39;99943.84;;;31.61;39.11
64551;BME280;50945;44.472;-123.352;2022-08-01T00:45:07;99950.50;;;31.39;39.80
64551;BME280;50945;44.472;-123.352;2022-08-01T00:47:33;99946.84;;;31.21;39.90
64551;BME280;50945;44.472;-123.352;2022-08-01T00:50:00;99929.44;;;31.02;40.00
64551;BME280;50945;44.472;-123.352;2022-08-01T00:52:26;99938.22;;;30.92;40.55
64551;BME280;50945;44.472;-123.352;2022-08-01T00:54:53;99930.75;;;30.78;40.93
64551;BME280;50945;44.472;-123.352;2022-08-01T00:57:19;99927.41;;;30.67;41.19
64551;BME280;50945;44.472;-123.352;2022-08-01T00:59:45;99925.41;;;30.59;41.27
64551;BME280;50945;44.472;-123.352;2022-08-01T01:02:12;99913.63;;;30.48;40.87
64551;BME280;50945;44.472;-123.352;2022-08-01T01:04:38;99916.25;;;30.36;41.20
64551;BME280;50945;44.472;-123.352;2022-08-01T01:07:19;99916.22;;;30.27;41.69
64551;BME280;50945;44.472;-123.352;2022-08-01T01:09:54;99908.84;;;30.09;41.81
64551;BME280;50945;44.472;-123.352;2022-08-01T01:12:43;99903.59;;;29.76;42.66
64551;BME280;50945;44.472;-123.352;2022-08-01T01:15:22;99902.06;;;29.38;42.64
64551;BME280;50945;44.472;-123.352;2022-08-01T01:17:55;99897.09;;;28.99;43.34
64551;BME280;50945;44.472;-123.352;2022-08-01T01:20:26;99892.56;;;28.67;43.66
64551;BME280;50945;44.472;-123.352;2022-08-01T01:23:21;99883.84;;;28.40;44.08
64551;BME280;50945;44.472;-123.352;2022-08-01T01:31:57;99861.31;;;27.90;45.25
64551;BME280;50945;44.472;-123.352;2022-08-01T01:34:25;99870.44;;;27.82;44.84
64551;BME280;50945;44.472;-123.352;2022-08-01T01:36:54;99864.72;;;27.73;44.77
64551;BME280;50945;44.472;-123.352;2022-08-01T01:39:26;99860.25;;;27.58;45.03
64551;BME280;50945;44.472;-123.352;2022-08-01T01:41:54;99853.31;;;27.56;44.91
64551;BME280;50945;44.472;-123.352;2022-08-01T01:44:21;99857.44;;;27.44;44.83
64551;BME280;50945;44.472;-123.352;2022-08-01T01:46:48;99849.41;;;27.38;45.11
64551;BME280;50945;44.472;-123.352;2022-08-01T01:49:16;99848.97;;;27.30;45.24
64551;BME280;50945;44.472;-123.352;2022-08-01T01:51:46;99855.81;;;27.24;45.05
64551;BME280;50945;44.472;-123.352;2022-08-01T01:54:13;99847.78;;;27.18;44.86
64551;BME280;50945;44.472;-123.352;2022-08-01T01:56:41;99851.19;;;27.15;45.06
64551;BME280;50945;44.472;-123.352;2022-08-01T01:59:19;99857.44;;;27.11;44.84
64551;BME280;50945;44.472;-123.352;2022-08-01T02:01:51;99855.56;;;27.07;44.80
64551;BME280;50945;44.472;-123.352;2022-08-01T02:04:20;99853.34;;;27.04;44.81
64551;BME280;50945;44.472;-123.352;2022-08-01T02:06:50;99848.38;;;27.01;44.96
64551;BME280;50945;44.472;-123.352;2022-08-01T02:09:19;99861.97;;;26.93;44.97
64551;BME280;50945;44.472;-123.352;2022-08-01T02:11:48;99868.47;;;26.89;45.16
64551;BME280;50945;44.472;-123.352;2022-08-01T02:14:16;99878.34;;;26.86;45.17
64551;BME280;50945;44.472;-123.352;2022-08-01T02:16:47;99873.88;;;26.85;45.48
64551;BME280;50945;44.472;-123.352;2022-08-01T02:19:14;99886.44;;;26.88;45.67
64551;BME280;50945;44.472;-123.352;2022-08-01T02:21:52;99886.97;;;26.90;45.90
64551;BME280;50945;44.472;-123.352;2022-08-01T02:24:35;99893.94;;;26.92;46.03
64551;BME280;50945;44.472;-123.352;2022-08-01T02:27:34;99895.63;;;26.93;46.38
64551;BME280;50945;44.472;-123.352;2022-08-01T02:30:07;99906.84;;;26.93;45.79
64551;BME280;50945;44.472;-123.352;2022-08-01T02:32:39;99911.88;;;26.91;45.72
64551;BME280;50945;44.472;-123.352;2022-08-01T02:35:09;99907.00;;;26.83;46.36
64551;BME280;50945;44.472;-123.352;2022-08-01T02:37:38;99915.91;;;26.66;47.13
64551;BME280;50945;44.472;-123.352;2022-08-01T02:40:08;99920.81;;;26.55;47.49
64551;BME280;50945;44.472;-123.352;2022-08-01T02:42:36;99928.47;;;26.50;47.63
64551;BME280;50945;44.472;-123.352;2022-08-01T02:45:05;99934.38;;;26.48;48.14
64551;BME280;50945;44.472;-123.352;2022-08-01T02:47:36;99939.97;;;26.48;48.11
64551;BME280;50945;44.472;-123.352;2022-08-01T02:50:05;99933.25;;;26.49;48.16
64551;BME280;50945;44.472;-123.352;2022-08-01T02:52:34;99938.84;;;26.49;48.05
64551;BME280;50945;44.472;-123.352;2022-08-01T02:55:02;99939.22;;;26.43;47.75
64551;BME280;50945;44.472;-123.352;2022-08-01T02:57:31;99932.31;;;26.35;47.62
64551;BME280;50945;44.472;-123.352;2022-08-01T02:59:59;99942.44;;;26.31;48.31
64551;BME280;50945;44.472;-123.352;2022-08-01T03:02:27;99944.81;;;26.18;48.16
64551;BME280;50945;44.472;-123.352;2022-08-01T03:04:55;99952.53;;;26.08;48.27
64551;BME280;50945;44.472;-123.352;2022-08-01T03:07:23;99946.97;;;26.03;48.26
64551;BME280;50945;44.472;-123.352;2022-08-01T03:09:51;99949.53;;;25.99;48.13
64551;BME280;50945;44.472;-123.352;2022-08-01T03:12:24;99957.16;;;25.93;48.23
64551;BME280;50945;44.472;-123.352;2022-08-01T03:14:54;99948.78;;;25.88;48.37
64551;BME280;50945;44.472;-123.352;2022-08-01T03:17:24;99946.91;;;25.84;48.48
64551;BME280;50945;44.472;-123.352;2022-08-01T03:19:52;99943.31;;;25.78;48.73
64551;BME280;50945;44.472;-123.352;2022-08-01T03:22:21;99957.94;;;25.70;48.95
64551;BME280;50945;44.472;-123.352;2022-08-01T03:24:51;99961.38;;;25.61;49.02
64551;BME280;50945;44.472;-123.352;2022-08-01T03:27:20;99959.50;;;25.57;49.27
64551;BME280;50945;44.472;-123.352;2022-08-01T03:29:48;99963.16;;;25.52;49.16
64551;BME280;50945;44.472;-123.352;2022-08-01T03:32:16;99970.47;;;25.48;49.14
64551;BME280;50945;44.472;-123.352;2022-08-01T03:34:44;99971.63;;;25.42;49.20
64551;BME280;50945;44.472;-123.352;2022-08-01T03:37:28;99975.63;;;25.36;49.50
64551;BME280;50945;44.472;-123.352;2022-08-01T03:40:02;99973.16;;;25.29;49.44
64551;BME280;50945;44.472;-123.352;2022-08-01T03:42:52;99976.88;;;25.14;50.44
64551;BME280;50945;44.472;-123.352;2022-08-01T03:45:22;99976.09;;;25.09;49.84
64551;BME280;50945;44.472;-123.352;2022-08-01T03:47:54;99978.66;;;25.00;49.81
64551;BME280;50945;44.472;-123.352;2022-08-01T03:50:22;99976.78;;;24.85;50.15
64551;BME280;50945;44.472;-123.352;2022-08-01T03:52:51;99987.44;;;24.78;50.29
64551;BME280;50945;44.472;-123.352;2022-08-01T03:55:21;99987.47;;;24.73;50.19
64551;BME280;50945;44.472;-123.352;2022-08-01T03:57:49;99993.41;;;24.66;50.27
64551;BME280;50945;44.472;-123.352;2022-08-01T04:00:16;99996.78;;;24.58;50.65
64551;BME280;50945;44.472;-123.352;2022-08-01T04:02:48;99995.09;;;24.52;50.65
64551;BME280;50945;44.472;-123.352;2022-08-01T04:05:16;100003.53;;;24.46;50.70
64551;BME280;50945;44.472;-123.352;2022-08-01T04:07:47;100003.00;;;24.39;50.99
64551;BME280;50945;44.472;-123.352;2022-08-01T04:10:13;99997.72;;;24.33;50.85
64551;BME280;50945;44.472;-123.352;2022-08-01T04:12:40;99998.28;;;24.24;51.20
64551;BME280;50945;44.472;-123.352;2022-08-01T04:15:06;100001.69;;;24.16;51.42
64551;BME280;50945;44.472;-123.352;2022-08-01T04:17:33;99999.47;;;24.08;51.40
64551;BME280;50945;44.472;-123.352;2022-08-01T04:19:59;100013.16;;;23.99;51.59
64551;BME280;50945;44.472;-123.352;2022-08-01T04:22:26;100014.84;;;23.95;51.50
64551;BME280;50945;44.472;-123.352;2022-08-01T04:24:55;100018.75;;;23.89;51.96
64551;BME280;50945;44.472;-123.352;2022-08-01T04:27:31;100007.31;;;23.80;52.83
64551;BME280;50945;44.472;-123.352;2022-08-01T04:29:59;100009.53;;;23.78;52.05
64551;BME280;50945;44.472;-123.352;2022-08-01T04:32:29;100003.13;;;23.72;52.01
64551;BME280;50945;44.472;-123.352;2022-08-01T04:34:58;100011.50;;;23.67;51.96
64551;BME280;50945;44.472;-123.352;2022-08-01T04:37:26;100002.28;;;23.62;52.08
64551;BME280;50945;44.472;-123.352;2022-08-01T04:39:54;100003.72;;;23.54;52.31
64551;BME280;50945;44.472;-123.352;2022-08-01T04:42:22;100002.56;;;23.45;52.77
64551;BME280;50945;44.472;-123.352;2022-08-01T04:44:48;100003.69;;;23.39;52.63
64551;BME280;50945;44.472;-123.352;2022-08-01T04:47:15;99993.63;;;23.32;52.87
64551;BME280;50945;44.472;-123.352;2022-08-01T04:49:42;99987.50;;;23.25;52.95
64551;BME280;50945;44.472;-123.352;2022-08-01T04:52:12;99982.78;;;23.15;53.26
64551;BME280;50945;44.472;-123.352;2022-08-01T04:54:39;99985.56;;;23.10;53.11
64551;BME280;50945;44.472;-123.352;2022-08-01T04:57:05;99981.94;;;23.05;53.56
64551;BME280;50945;44.472;-123.352;2022-08-01T04:59:37;99987.19;;;22.96;53.46
64551;BME280;50945;44.472;-123.352;2022-08-01T05:02:13;100002.50;;;22.88;54.42
64551;BME280;50945;44.472;-123.352;2022-08-01T05:04:40;100001.91;;;22.76;53.99
64551;BME280;50945;44.472;-123.352;2022-08-01T05:07:07;100005.50;;;22.71;53.57
64551;BME280;50945;44.472;-123.352;2022-08-01T05:09:34;100005.50;;;22.66;53.69
64551;BME280;50945;44.472;-123.352;2022-08-01T05:12:05;100001.28;;;22.58;53.99
64551;BME280;50945;44.472;-123.352;2022-08-01T05:14:32;100016.88;;;22.49;53.94
64551;BME280;50945;44.472;-123.352;2022-08-01T05:16:59;100027.97;;;22.44;54.22
64551;BME280;50945;44.472;-123.352;2022-08-01T05:19:30;100021.84;;;22.42;54.15
64551;BME280;50945;44.472;-123.352;2022-08-01T05:21:58;100027.09;;;22.33;54.28
64551;BME280;50945;44.472;-123.352;2022-08-01T05:24:27;100035.91;;;22.25;54.49
64551;BME280;50945;44.472;-123.352;2022-08-01T05:26:57;100038.13;;;22.23;54.76
64551;BME280;50945;44.472;-123.352;2022-08-01T05:29:24;100037.88;;;22.25;54.83
64551;BME280;50945;44.472;-123.352;2022-08-01T05:31:51;100049.59;;;22.27;54.67
64551;BME280;50945;44.472;-123.352;2022-08-01T05:34:18;100053.72;;;22.24;54.81
64551;BME280;50945;44.472;-123.352;2022-08-01T05:36:47;100050.63;;;22.15;54.81
64551;BME280;50945;44.472;-123.352;2022-08-01T05:39:13;100048.25;;;21.97;57.12
64551;BME280;50945;44.472;-123.352;2022-08-01T05:41:40;100057.44;;;21.92;54.97
64551;BME280;50945;44.472;-123.352;2022-08-01T05:44:07;100062.09;;;21.87;55.24
64551;BME280;50945;44.472;-123.352;2022-08-01T05:46:34;100065.97;;;21.80;55.65
64551;BME280;50945;44.472;-123.352;2022-08-01T05:49:02;100072.25;;;21.71;55.67
64551;BME280;50945;44.472;-123.352;2022-08-01T05:51:29;100082.91;;;21.47;56.20
64551;BME280;50945;44.472;-123.352;2022-08-01T05:53:56;100091.00;;;21.26;56.56
64551;BME280;50945;44.472;-123.352;2022-08-01T05:56:23;100094.88;;;20.98;57.23
64551;BME280;50945;44.472;-123.352;2022-08-01T05:58:50;100091.00;;;20.77;57.51
64551;BME280;50945;44.472;-123.352;2022-08-01T06:01:17;100096.97;;;20.63;57.80
64551;BME280;50945;44.472;-123.352;2022-08-01T06:03:44;100108.41;;;20.50;58.12
64551;BME280;50945;44.472;-123.352;2022-08-01T06:06:11;100103.47;;;20.35;58.21
64551;BME280;50945;44.472;-123.352;2022-08-01T06:08:37;100106.97;;;20.08;61.93
64551;BME280;50945;44.472;-123.352;2022-08-01T06:11:03;100111.03;;;20.01;58.41
64551;BME280;50945;44.472;-123.352;2022-08-01T06:13:29;100112.19;;;19.88;58.76
64551;BME280;50945;44.472;-123.352;2022-08-01T06:15:55;100113.25;;;19.70;58.93
64551;BME280;50945;44.472;-123.352;2022-08-01T06:18:22;100113.34;;;19.58;59.17
64551;BME280;50945;44.472;-123.352;2022-08-01T06:20:48;100112.81;;;19.44;59.57
64551;BME280;50945;44.472;-123.352;2022-08-01T06:23:15;100113.53;;;19.40;59.71
64551;BME280;50945;44.472;-123.352;2022-08-01T06:25:42;100111.19;;;19.31;59.92
64551;BME280;50945;44.472;-123.352;2022-08-01T06:28:09;100122.66;;;19.23;59.93
64551;BME280;50945;44.472;-123.352;2022-08-01T06:30:36;100118.13;;;19.17;60.03
64551;BME280;50945;44.472;-123.352;2022-08-01T06:33:02;100120.09;;;19.05;60.38
64551;BME280;50945;44.472;-123.352;2022-08-01T06:35:28;100118.09;;;18.88;63.70
64551;BME280;50945;44.472;-123.352;2022-08-01T06:37:56;100122.78;;;18.88;60.71
64551;BME280;50945;44.472;-123.352;2022-08-01T06:40:23;100121.72;;;18.89;60.93
64551;BME280;50945;44.472;-123.352;2022-08-01T06:42:50;100124.72;;;18.87;61.03
64551;BME280;50945;44.472;-123.352;2022-08-01T06:45:16;100110.88;;;18.87;60.94
64551;BME280;50945;44.472;-123.352;2022-08-01T06:47:44;100120.25;;;18.86;60.99
64551;BME280;50945;44.472;-123.352;2022-08-01T06:50:11;100115.31;;;18.88;61.28
64551;BME280;50945;44.472;-123.352;2022-08-01T06:52:40;100119.44;;;18.86;61.26
64551;BME280;50945;44.472;-123.352;2022-08-01T06:55:07;100114.38;;;18.83;61.35
64551;BME280;50945;44.472;-123.352;2022-08-01T06:57:34;100123.78;;;18.82;61.60
64551;BME280;50945;44.472;-123.352;2022-08-01T07:00:05;100128.44;;;18.81;62.30
64551;BME280;50945;44.472;-123.352;2022-08-01T07:02:34;100127.59;;;18.80;61.69
64551;BME280;50945;44.472;-123.352;2022-08-01T07:05:02;100132.31;;;18.80;61.62
64551;BME280;50945;44.472;-123.352;2022-08-01T07:07:30;100127.16;;;18.84;62.10
64551;BME280;50945;44.472;-123.352;2022-08-01T07:09:56;100129.78;;;18.90;62.42
64551;BME280;50945;44.472;-123.352;2022-08-01T07:12:22;100126.16;;;18.90;66.42
64551;BME280;50945;44.472;-123.352;2022-08-01T07:14:49;100133.16;;;18.92;61.93
64551;BME280;50945;44.472;-123.352;2022-08-01T07:17:15;100135.69;;;18.94;61.86
64551;BME280;50945;44.472;-123.352;2022-08-01T07:19:41;100142.63;;;18.96;62.17
64551;BME280;50945;44.472;-123.352;2022-08-01T07:22:07;100147.94;;;18.98;62.04
64551;BME280;50945;44.472;-123.352;2022-08-01T07:24:34;100147.94;;;18.98;62.44
64551;BME280;50945;44.472;-123.352;2022-08-01T07:27:00;100156.25;;;18.98;62.75
64551;BME280;50945;44.472;-123.352;2022-08-01T07:29:26;100164.31;;;18.99;62.79
64551;BME280;50945;44.472;-123.352;2022-08-01T07:31:54;100162.38;;;19.00;62.79
64551;BME280;50945;44.472;-123.352;2022-08-01T07:34:21;100185.97;;;19.03;62.71
64551;BME280;50945;44.472;-123.352;2022-08-01T07:36:49;100185.47;;;19.06;62.57
64551;BME280;50945;44.472;-123.352;2022-08-01T07:39:15;100178.03;;;19.06;62.74
64551;BME280;50945;44.472;-123.352;2022-08-01T07:41:41;100189.13;;;19.06;62.72
64551;BME280;50945;44.472;-123.352;2022-08-01T07:44:07;100189.13;;;19.06;62.76
64551;BME280;50945;44.472;-123.352;2022-08-01T07:46:34;100197.66;;;19.05;63.11
64551;BME280;50945;44.472;-123.352;2022-08-01T07:49:00;100207.88;;;19.04;62.93
64551;BME280;50945;44.472;-123.352;2022-08-01T07:51:26;100216.19;;;19.04;63.07
64551;BME280;50945;44.472;-123.352;2022-08-01T07:53:53;100221.25;;;19.07;62.99
64551;BME280;50945;44.472;-123.352;2022-08-01T07:56:20;100229.91;;;19.11;63.13
64551;BME280;50945;44.472;-123.352;2022-08-01T07:58:46;100217.25;;;19.15;62.86
64551;BME280;50945;44.472;-123.352;2022-08-01T08:01:13;100195.34;;;19.13;63.20
64551;BME280;50945;44.472;-123.352;2022-08-01T08:03:40;100202.44;;;19.09;62.92
64551;BME280;50945;44.472;-123.352;2022-08-01T08:06:06;100226.78;;;19.07;62.90
64551;BME280;50945;44.472;-123.352;2022-08-01T08:08:32;100224.75;;;19.03;65.52
64551;BME280;50945;44.472;-123.352;2022-08-01T08:11:00;100226.91;;;19.00;62.68
64551;BME280;50945;44.472;-123.352;2022-08-01T08:13:27;100237.41;;;18.98;62.97
64551;BME280;50945;44.472;-123.352;2022-08-01T08:15:53;100234.88;;;18.97;62.98
64551;BME280;50945;44.472;-123.352;2022-08-01T08:18:19;100233.19;;;18.96;62.98
64551;BME280;50945;44.472;-123.352;2022-08-01T08:20:46;100234.03;;;18.96;63.07
64551;BME280;50945;44.472;-123.352;2022-08-01T08:23:12;100214.88;;;18.95;62.99
64551;BME280;50945;44.472;-123.352;2022-08-01T08:25:56;100209.97;;;18.85;63.15
64551;BME280;50945;44.472;-123.352;2022-08-01T08:28:23;100216.19;;;18.80;63.43
64551;BME280;50945;44.472;-123.352;2022-08-01T08:30:49;100216.69;;;18.77;63.46
64551;BME280;50945;44.472;-123.352;2022-08-01T08:33:15;100195.28;;;18.73;63.38
64551;BME280;50945;44.472;-123.352;2022-08-01T08:35:41;100227.28;;;18.69;63.42
64551;BME280;50945;44.472;-123.352;2022-08-01T08:38:07;100203.47;;;18.68;63.66
64551;BME280;50945;44.472;-123.352;2022-08-01T08:40:36;100206.13;;;18.62;63.78
64551;BME280;50945;44.472;-123.352;2022-08-01T08:43:05;100200.22;;;18.59;63.78
64551;BME280;50945;44.472;-123.352;2022-08-01T08:45:32;100199.84;;;18.55;63.99
64551;BME280;50945;44.472;-123.352;2022-08-01T08:47:59;100200.09;;;18.54;64.12
64551;BME280;50945;44.472;-123.352;2022-08-01T08:50:26;100204.78;;;18.53;64.18
64551;BME280;50945;44.472;-123.352;2022-08-01T08:52:55;100201.66;;;18.50;64.05
64551;BME280;50945;44.472;-123.352;2022-08-01T08:55:22;100207.91;;;18.45;64.42
64551;BME280;50945;44.472;-123.352;2022-08-01T08:57:50;100218.84;;;18.40;64.32
64551;BME280;50945;44.472;-123.352;2022-08-01T09:00:18;100206.00;;;18.34;64.53
64551;BME280;50945;44.472;-123.352;2022-08-01T09:02:45;100205.63;;;18.30;64.57
64551;BME280;50945;44.472;-123.352;2022-08-01T09:05:12;100199.63;;;18.21;64.90
64551;BME280;50945;44.472;-123.352;2022-08-01T09:07:38;100206.09;;;18.15;65.09
64551;BME280;50945;44.472;-123.352;2022-08-01T09:10:05;100205.34;;;18.08;67.63
64551;BME280;50945;44.472;-123.352;2022-08-01T09:12:32;100203.91;;;18.05;64.90
64551;BME280;50945;44.472;-123.352;2022-08-01T09:14:57;100210.16;;;18.01;66.68
64551;BME280;50945;44.472;-123.352;2022-08-01T09:17:24;100216.91;;;18.05;64.81
64551;BME280;50945;44.472;-123.352;2022-08-01T09:19:52;100223.28;;;18.05;64.98
64551;BME280;50945;44.472;-123.352;2022-08-01T09:22:21;100225.56;;;18.09;65.17
64551;BME280;50945;44.472;-123.352;2022-08-01T09:25:05;100236.16;;;18.12;65.93
64551;BME280;50945;44.472;-123.352;2022-08-01T09:27:32;100245.41;;;18.17;64.94
64551;BME280;50945;44.472;-123.352;2022-08-01T09:30:17;100229.44;;;18.19;66.48
64551;BME280;50945;44.472;-123.352;2022-08-01T09:33:00;100236.88;;;18.19;65.97
64551;BME280;50945;44.472;-123.352;2022-08-01T09:35:32;100236.03;;;18.18;64.71
64551;BME280;50945;44.472;-123.352;2022-08-01T09:38:14;100245.69;;;18.16;65.57
64551;BME280;50945;44.472;-123.352;2022-08-01T09:43:12;100249.63;;;18.20;64.62
64551;BME280;50945;44.472;-123.352;2022-08-01T09:45:38;100255.41;;;18.18;68.28
64551;BME280;50945;44.472;-123.352;2022-08-01T09:48:11;100269.38;;;18.23;64.85
64551;BME280;50945;44.472;-123.352;2022-08-01T09:50:45;100265.03;;;18.28;64.61
64551;BME280;50945;44.472;-123.352;2022-08-01T09:53:12;100265.03;;;18.28;64.80
64551;BME280;50945;44.472;-123.352;2022-08-01T09:55:40;100262.78;;;18.24;64.59
64551;BME280;50945;44.472;-123.352;2022-08-01T09:58:07;100253.34;;;18.14;64.59
64551;BME280;50945;44.472;-123.352;2022-08-01T10:00:34;100247.56;;;18.03;65.00
64551;BME280;50945;44.472;-123.352;2022-08-01T10:03:22;100254.38;;;17.89;66.40
64551;BME280;50945;44.472;-123.352;2022-08-01T10:05:48;100247.72;;;17.78;65.57
64551;BME280;50945;44.472;-123.352;2022-08-01T10:08:15;100250.66;;;17.65;65.82
64551;BME280;50945;44.472;-123.352;2022-08-01T10:11:10;100247.44;;;17.49;67.22
64551;BME280;50945;44.472;-123.352;2022-08-01T10:13:36;100269.03;;;17.41;66.60
64551;BME280;50945;44.472;-123.352;2022-08-01T10:16:03;100268.41;;;17.39;66.35
64551;BME280;50945;44.472;-123.352;2022-08-01T10:18:33;100271.66;;;17.36;66.31
64551;BME280;50945;44.472;-123.352;2022-08-01T10:21:03;100272.34;;;17.31;66.50
64551;BME280;50945;44.472;-123.352;2022-08-01T10:23:37;100282.41;;;17.25;67.08
64551;BME280;50945;44.472;-123.352;2022-08-01T10:26:05;100288.59;;;17.21;66.49
64551;BME280;50945;44.472;-123.352;2022-08-01T10:28:35;100281.88;;;17.17;66.71
64551;BME280;50945;44.472;-123.352;2022-08-01T10:31:02;100280.28;;;17.09;66.65
64551;BME280;50945;44.472;-123.352;2022-08-01T10:33:29;100276.69;;;17.02;67.08
64551;BME280;50945;44.472;-123.352;2022-08-01T10:35:57;100280.34;;;17.02;67.40
64551;BME280;50945;44.472;-123.352;2022-08-01T10:38:23;100281.31;;;17.08;67.06
64551;BME280;50945;44.472;-123.352;2022-08-01T10:40:50;100287.47;;;17.10;67.09
64551;BME280;50945;44.472;-123.352;2022-08-01T10:43:19;100279.41;;;17.08;67.09
64551;BME280;50945;44.472;-123.352;2022-08-01T10:45:45;100269.28;;;17.02;67.30
64551;BME280;50945;44.472;-123.352;2022-08-01T10:51:02;100266.81;;;16.94;67.35
64551;BME280;50945;44.472;-123.352;2022-08-01T10:53:30;100257.53;;;16.88;67.70
64551;BME280;50945;44.472;-123.352;2022-08-01T11:01:22;100259.56;;;16.75;69.37
64551;BME280;50945;44.472;-123.352;2022-08-01T11:09:04;100257.09;;;16.66;67.33
64551;BME280;50945;44.472;-123.352;2022-08-01T11:11:30;100256.28;;;16.59;67.60
64551;BME280;50945;44.472;-123.352;2022-08-01T11:16:40;100237.13;;;16.46;68.50
64551;BME280;50945;44.472;-123.352;2022-08-01T11:19:07;100245.22;;;16.41;68.62
64551;BME280;50945;44.472;-123.352;2022-08-01T11:32:49;100254.69;;;16.26;69.64
64551;BME280;50945;44.472;-123.352;2022-08-01T11:35:16;100248.56;;;16.24;68.75
64551;BME280;50945;44.472;-123.352;2022-08-01T11:37:43;100243.28;;;16.23;68.75
64551;BME280;50945;44.472;-123.352;2022-08-01T11:40:23;100247.09;;;16.22;69.38
64551;BME280;50945;44.472;-123.352;2022-08-01T11:43:15;100242.88;;;16.19;68.74
64551;BME280;50945;44.472;-123.352;2022-08-01T11:45:51;100233.38;;;16.15;69.09
64551;BME280;50945;44.472;-123.352;2022-08-01T11:48:23;100239.78;;;16.09;68.96
64551;BME280;50945;44.472;-123.352;2022-08-01T11:50:57;100252.94;;;16.07;69.25
64551;BME280;50945;44.472;-123.352;2022-08-01T11:53:24;100254.00;;;16.06;69.69
64551;BME280;50945;44.472;-123.352;2022-08-01T11:55:52;100259.50;;;16.06;69.04
64551;BME280;50945;44.472;-123.352;2022-08-01T11:58:25;100266.53;;;16.02;69.79
64551;BME280;50945;44.472;-123.352;2022-08-01T12:00:56;100276.13;;;15.99;69.75
64551;BME280;50945;44.472;-123.352;2022-08-01T12:03:28;100276.13;;;15.99;69.46
64551;BME280;50945;44.472;-123.352;2022-08-01T12:05:56;100275.47;;;15.97;69.75
64551;BME280;50945;44.472;-123.352;2022-08-01T12:08:31;100289.50;;;15.95;70.00
64551;BME280;50945;44.472;-123.352;2022-08-01T12:11:04;100289.72;;;15.94;69.64
64551;BME280;50945;44.472;-123.352;2022-08-01T12:13:43;100294.63;;;15.92;70.25
64551;BME280;50945;44.472;-123.352;2022-08-01T12:16:11;100293.13;;;15.89;69.98
64551;BME280;50945;44.472;-123.352;2022-08-01T12:18:42;100296.72;;;15.90;69.67
64551;BME280;50945;44.472;-123.352;2022-08-01T12:21:08;100293.13;;;15.89;69.36
64551;BME280;50945;44.472;-123.352;2022-08-01T12:23:35;100296.31;;;15.86;69.62
64551;BME280;50945;44.472;-123.352;2022-08-01T12:26:02;100298.44;;;15.84;69.95
64551;BME280;50945;44.472;-123.352;2022-08-01T12:28:29;100306.31;;;15.81;70.13
64551;BME280;50945;44.472;-123.352;2022-08-01T12:30:55;100303.78;;;15.79;69.72
64551;BME280;50945;44.472;-123.352;2022-08-01T12:33:22;100304.03;;;15.77;70.52
64551;BME280;50945;44.472;-123.352;2022-08-01T12:35:49;100309.28;;;15.79;70.22
64551;BME280;50945;44.472;-123.352;2022-08-01T12:38:17;100305.28;;;15.82;70.27
64551;BME280;50945;44.472;-123.352;2022-08-01T12:40:46;100308.44;;;15.85;70.17
64551;BME280;50945;44.472;-123.352;2022-08-01T12:43:18;100308.00;;;15.88;70.16
64551;BME280;50945;44.472;-123.352;2022-08-01T12:45:46;100310.06;;;15.93;70.41
64551;BME280;50945;44.472;-123.352;2022-08-01T12:48:15;100309.00;;;15.94;70.27
64551;BME280;50945;44.472;-123.352;2022-08-01T12:50:44;100301.38;;;15.96;70.41
64551;BME280;50945;44.472;-123.352;2022-08-01T12:53:11;100311.97;;;15.99;70.24
64551;BME280;50945;44.472;-123.352;2022-08-01T12:55:50;100305.97;;;16.02;70.55
64551;BME280;50945;44.472;-123.352;2022-08-01T12:58:18;100312.13;;;16.04;70.11
64551;BME280;50945;44.472;-123.352;2022-08-01T13:00:48;100311.66;;;16.07;70.10
64551;BME280;50945;44.472;-123.352;2022-08-01T13:03:17;100312.53;;;16.08;70.15
64551;BME280;50945;44.472;-123.352;2022-08-01T13:05:46;100319.72;;;16.09;70.19
64551;BME280;50945;44.472;-123.352;2022-08-01T13:08:15;100324.63;;;16.07;70.34